sensor_id;sensor_type;location;lat;lon;timestamp;temperature;humidity
18384;DHT22;9318;48.644;9.456;2022-07-01T00:02:25;17.50;99.90
18384;DHT22;9318;48.644;9.456;2022-07-01T00:04:53;17.50;99.90
18384;DHT22;9318;48.644;9.456;2022-07-01T00:07:20;17.50;99.90
18384;DHT22;9318;48.644;9.456;2022-07-01T00:09:47;17.50;99.90
18384;DHT22;9318;48.644;9.456;2022-07-01T00:12:15;17.50;99.90
18384;DHT22;9318;48.644;9.456;2022-07-01T00:14:43;17.50;99.90
18384;DHT22;9318;48.644;9.456;2022-07-01T00:17:11;17.50;99.90
18384;DHT22;9318;48.644;9.456;2022-07-01T00:19:38;17.40;99.90
18384;DHT22;9318;48.644;9.456;2022-07-01T00:22:05;17.40;99.90
18384;DHT22;9318;48.644;9.456;2022-07-01T00:24:33;17.40;99.90
18384;DHT22;9318;48.644;9.456;2022-07-01T00:27:00;17.40;99.90
18384;DHT22;9318;48.644;9.456;2022-07-01T00:29:27;17.30;99.90
18384;DHT22;9318;48.644;9.456;2022-07-01T00:31:56;17.10;99.90
18384;DHT22;9318;48.644;9.456;2022-07-01T00:34:23;17.00;99.90
18384;DHT22;9318;48.644;9.456;2022-07-01T00:36:50;17.00;99.90
18384;DHT22;9318;48.644;9.456;2022-07-01T00:39:17;17.00;99.90
18384;DHT22;9318;48.644;9.456;2022-07-01T00:41:44;17.00;99.90
18384;DHT22;9318;48.644;9.456;2022-07-01T00:44:18;17.00;99.90
18384;DHT22;9318;48.644;9.456;2022-07-01T00:46:45;17.00;99.90
18384;DHT22;9318;48.644;9.456;2022-07-01T00:49:14;16.90;99.90
18384;DHT22;9318;48.644;9.456;2022-07-01T00:51:41;16.90;99.90
18384;DHT22;9318;48.644;9.456;2022-07-01T00:54:08;16.90;99.90
18384;DHT22;9318;48.644;9.456;2022-07-01T00:56:35;16.90;99.90
18384;DHT22;9318;48.644;9.456;2022-07-01T00:59:03;16.80;99.90
18384;DHT22;9318;48.644;9.456;2022-07-01T01:01:30;16.60;99.90
18384;DHT22;9318;48.644;9.456;2022-07-01T01:03:57;16.50;99.90
18384;DHT22;9318;48.644;9.456;2022-07-01T01:06:27;16.50;99.90
18384;DHT22;9318;48.644;9.456;2022-07-01T01:08:54;16.60;99.90
18384;DHT22;9318;48.644;9.456;2022-07-01T01:11:22;16.60;99.90
18384;DHT22;9318;48.644;9.456;2022-07-01T01:13:49;16.50;99.90
18384;DHT22;9318;48.644;9.456;2022-07-01T01:16:20;16.50;99.90
18384;DHT22;9318;48.644;9.456;2022-07-01T01:18:48;16.60;99.90
18384;DHT22;9318;48.644;9.456;2022-07-01T01:21:17;16.70;99.90
18384;DHT22;9318;48.644;9.456;2022-07-01T01:23:44;16.80;99.90
18384;DHT22;9318;48.644;9.456;2022-07-01T01:26:20;16.80;99.90
18384;DHT22;9318;48.644;9.456;2022-07-01T01:28:50;16.70;99.90
18384;DHT22;9318;48.644;9.456;2022-07-01T01:31:18;16.70;99.90
18384;DHT22;9318;48.644;9.456;2022-07-01T01:33:55;16.50;99.90
18384;DHT22;9318;48.644;9.456;2022-07-01T01:36:24;16.60;99.90
18384;DHT22;9318;48.644;9.456;2022-07-01T01:38:52;16.30;99.90
18384;DHT22;9318;48.644;9.456;2022-07-01T01:41:19;16.20;99.90
18384;DHT22;9318;48.644;9.456;2022-07-01T01:43:46;16.00;99.90
18384;DHT22;9318;48.644;9.456;2022-07-01T01:46:14;15.80;99.90
18384;DHT22;9318;48.644;9.456;2022-07-01T01:48:41;15.80;99.90
18384;DHT22;9318;48.644;9.456;2022-07-01T01:51:08;15.60;99.90
18384;DHT22;9318;48.644;9.456;2022-07-01T01:53:37;15.50;99.90
18384;DHT22;9318;48.644;9.456;2022-07-01T01:56:04;15.40;99.90
18384;DHT22;9318;48.644;9.456;2022-07-01T01:58:32;15.30;99.90
18384;DHT22;9318;48.644;9.456;2022-07-01T02:00:59;15.20;99.90
18384;DHT22;9318;48.644;9.456;2022-07-01T02:03:27;15.10;99.90
18384;DHT22;9318;48.644;9.456;2022-07-01T02:05:55;15.10;99.90
18384;DHT22;9318;48.644;9.456;2022-07-01T02:08:22;15.00;99.90
18384;DHT22;9318;48.644;9.456;2022-07-01T02:10:51;15.10;99.90
18384;DHT22;9318;48.644;9.456;2022-07-01T02:13:18;15.10;99.90
18384;DHT22;9318;48.644;9.456;2022-07-01T02:15:45;15.20;99.90
18384;DHT22;9318;48.644;9.456;2022-07-01T02:18:12;15.20;99.90
18384;DHT22;9318;48.644;9.456;2022-07-01T02:20:40;15.30;99.90
18384;DHT22;9318;48.644;9.456;2022-07-01T02:23:07;15.40;99.90
18384;DHT22;9318;48.644;9.456;2022-07-01T02:25:35;15.40;99.90
18384;DHT22;9318;48.644;9.456;2022-07-01T02:28:04;15.50;99.90
18384;DHT22;9318;48.644;9.456;2022-07-01T02:30:31;15.50;99.90
18384;DHT22;9318;48.644;9.456;2022-07-01T02:33:02;15.50;99.90
18384;DHT22;9318;48.644;9.456;2022-07-01T02:35:29;15.50;99.90
18384;DHT22;9318;48.644;9.456;2022-07-01T02:37:56;15.60;99.90
18384;DHT22;9318;48.644;9.456;2022-07-01T02:40:24;15.60;99.90
18384;DHT22;9318;48.644;9.456;2022-07-01T02:42:51;15.60;99.90
18384;DHT22;9318;48.644;9.456;2022-07-01T02:45:20;15.70;99.90
18384;DHT22;9318;48.644;9.456;2022-07-01T02:47:47;15.80;99.90
18384;DHT22;9318;48.644;9.456;2022-07-01T02:50:14;15.80;99.90
18384;DHT22;9318;48.644;9.456;2022-07-01T02:52:42;15.80;99.90
18384;DHT22;9318;48.644;9.456;2022-07-01T02:55:11;15.80;99.90
18384;DHT22;9318;48.644;9.456;2022-07-01T02:57:39;15.80;99.90
18384;DHT22;9318;48.644;9.456;2022-07-01T03:00:09;15.80;99.90
18384;DHT22;9318;48.644;9.456;2022-07-01T03:02:38;15.80;99.90
18384;DHT22;9318;48.644;9.456;2022-07-01T03:05:07;15.70;99.90
18384;DHT22;9318;48.644;9.456;2022-07-01T03:07:34;15.80;99.90
18384;DHT22;9318;48.644;9.456;2022-07-01T03:10:02;15.80;99.90
18384;DHT22;9318;48.644;9.456;2022-07-01T03:12:30;15.90;99.90
18384;DHT22;9318;48.644;9.456;2022-07-01T03:15:01;16.00;99.90
18384;DHT22;9318;48.644;9.456;2022-07-01T03:17:31;16.10;99.90
18384;DHT22;9318;48.644;9.456;2022-07-01T03:20:01;16.10;99.90
18384;DHT22;9318;48.644;9.456;2022-07-01T03:22:30;15.90;99.90
18384;DHT22;9318;48.644;9.456;2022-07-01T03:24:58;15.90;99.90
18384;DHT22;9318;48.644;9.456;2022-07-01T03:27:26;15.80;99.90
18384;DHT22;9318;48.644;9.456;2022-07-01T03:29:54;15.80;99.90
18384;DHT22;9318;48.644;9.456;2022-07-01T03:32:21;15.80;99.90
18384;DHT22;9318;48.644;9.456;2022-07-01T03:34:50;15.80;99.90
18384;DHT22;9318;48.644;9.456;2022-07-01T03:37:20;15.60;99.90
18384;DHT22;9318;48.644;9.456;2022-07-01T03:39:48;15.70;99.90
18384;DHT22;9318;48.644;9.456;2022-07-01T03:42:16;15.70;99.90
18384;DHT22;9318;48.644;9.456;2022-07-01T03:44:43;15.60;99.90
18384;DHT22;9318;48.644;9.456;2022-07-01T03:47:11;15.50;99.90
18384;DHT22;9318;48.644;9.456;2022-07-01T03:49:38;15.60;99.90
18384;DHT22;9318;48.644;9.456;2022-07-01T03:52:06;15.60;99.90
18384;DHT22;9318;48.644;9.456;2022-07-01T03:54:34;15.70;99.90
18384;DHT22;9318;48.644;9.456;2022-07-01T03:57:04;15.60;99.90
18384;DHT22;9318;48.644;9.456;2022-07-01T03:59:35;15.60;99.90
18384;DHT22;9318;48.644;9.456;2022-07-01T04:02:04;15.60;99.90
18384;DHT22;9318;48.644;9.456;2022-07-01T04:04:32;15.70;99.90
18384;DHT22;9318;48.644;9.456;2022-07-01T04:07:01;15.80;99.90
18384;DHT22;9318;48.644;9.456;2022-07-01T04:09:29;15.90;99.90
18384;DHT22;9318;48.644;9.456;2022-07-01T04:11:58;15.90;99.90
18384;DHT22;9318;48.644;9.456;2022-07-01T04:14:25;15.80;99.90
18384;DHT22;9318;48.644;9.456;2022-07-01T04:16:53;15.80;99.90
18384;DHT22;9318;48.644;9.456;2022-07-01T04:19:20;15.80;99.90
18384;DHT22;9318;48.644;9.456;2022-07-01T04:21:47;15.90;99.90
18384;DHT22;9318;48.644;9.456;2022-07-01T04:24:32;16.00;99.90
18384;DHT22;9318;48.644;9.456;2022-07-01T04:27:01;15.80;99.90
18384;DHT22;9318;48.644;9.456;2022-07-01T04:29:28;15.70;99.90
18384;DHT22;9318;48.644;9.456;2022-07-01T04:31:56;15.80;99.90
18384;DHT22;9318;48.644;9.456;2022-07-01T04:34:23;15.90;99.90
18384;DHT22;9318;48.644;9.456;2022-07-01T04:36:50;16.00;99.90
18384;DHT22;9318;48.644;9.456;2022-07-01T04:39:18;15.90;99.90
18384;DHT22;9318;48.644;9.456;2022-07-01T04:41:45;16.00;99.90
18384;DHT22;9318;48.644;9.456;2022-07-01T04:44:30;16.00;99.90
18384;DHT22;9318;48.644;9.456;2022-07-01T04:46:58;16.20;99.90
18384;DHT22;9318;48.644;9.456;2022-07-01T04:49:26;16.30;99.90
18384;DHT22;9318;48.644;9.456;2022-07-01T04:51:53;16.40;99.90
18384;DHT22;9318;48.644;9.456;2022-07-01T04:54:21;16.50;99.90
18384;DHT22;9318;48.644;9.456;2022-07-01T04:56:48;16.60;99.90
18384;DHT22;9318;48.644;9.456;2022-07-01T04:59:16;16.40;99.90
18384;DHT22;9318;48.644;9.456;2022-07-01T05:01:46;16.30;99.90
18384;DHT22;9318;48.644;9.456;2022-07-01T05:04:15;16.40;99.90
18384;DHT22;9318;48.644;9.456;2022-07-01T05:06:42;16.40;99.90
18384;DHT22;9318;48.644;9.456;2022-07-01T05:09:09;16.40;99.90
18384;DHT22;9318;48.644;9.456;2022-07-01T05:11:37;16.40;99.90
18384;DHT22;9318;48.644;9.456;2022-07-01T05:14:04;16.30;99.90
18384;DHT22;9318;48.644;9.456;2022-07-01T05:16:32;16.10;99.90
18384;DHT22;9318;48.644;9.456;2022-07-01T05:19:01;16.10;99.90
18384;DHT22;9318;48.644;9.456;2022-07-01T05:21:46;16.00;99.90
18384;DHT22;9318;48.644;9.456;2022-07-01T05:24:30;16.00;99.90
18384;DHT22;9318;48.644;9.456;2022-07-01T05:26:58;16.10;99.90
18384;DHT22;9318;48.644;9.456;2022-07-01T05:29:26;16.10;99.90
18384;DHT22;9318;48.644;9.456;2022-07-01T05:31:53;16.10;99.90
18384;DHT22;9318;48.644;9.456;2022-07-01T05:34:22;16.20;99.90
18384;DHT22;9318;48.644;9.456;2022-07-01T05:36:49;16.20;99.90
18384;DHT22;9318;48.644;9.456;2022-07-01T05:39:16;16.20;99.90
18384;DHT22;9318;48.644;9.456;2022-07-01T05:41:43;16.20;99.90
18384;DHT22;9318;48.644;9.456;2022-07-01T05:44:11;16.10;99.90
18384;DHT22;9318;48.644;9.456;2022-07-01T05:46:38;16.10;99.90
18384;DHT22;9318;48.644;9.456;2022-07-01T05:49:05;16.10;99.90
18384;DHT22;9318;48.644;9.456;2022-07-01T05:51:34;16.10;99.90
18384;DHT22;9318;48.644;9.456;2022-07-01T05:54:01;16.10;99.90
18384;DHT22;9318;48.644;9.456;2022-07-01T05:56:29;16.20;99.90
18384;DHT22;9318;48.644;9.456;2022-07-01T05:58:56;16.20;99.90
18384;DHT22;9318;48.644;9.456;2022-07-01T06:01:23;16.20;99.90
18384;DHT22;9318;48.644;9.456;2022-07-01T06:03:50;16.20;99.90
18384;DHT22;9318;48.644;9.456;2022-07-01T06:06:17;16.00;99.90
18384;DHT22;9318;48.644;9.456;2022-07-01T06:08:47;16.00;99.90
18384;DHT22;9318;48.644;9.456;2022-07-01T06:11:14;16.00;99.90
18384;DHT22;9318;48.644;9.456;2022-07-01T06:13:41;16.00;99.90
18384;DHT22;9318;48.644;9.456;2022-07-01T06:16:09;16.00;99.90
18384;DHT22;9318;48.644;9.456;2022-07-01T06:18:36;16.00;99.90
18384;DHT22;9318;48.644;9.456;2022-07-01T06:21:03;16.00;99.90
18384;DHT22;9318;48.644;9.456;2022-07-01T06:23:30;16.00;99.90
18384;DHT22;9318;48.644;9.456;2022-07-01T06:25:59;16.00;99.90
18384;DHT22;9318;48.644;9.456;2022-07-01T06:28:26;15.90;99.90
18384;DHT22;9318;48.644;9.456;2022-07-01T06:30:56;16.00;99.90
18384;DHT22;9318;48.644;9.456;2022-07-01T06:33:23;16.00;99.90
18384;DHT22;9318;48.644;9.456;2022-07-01T06:35:51;16.10;99.90
18384;DHT22;9318;48.644;9.456;2022-07-01T06:38:18;16.20;99.90
18384;DHT22;9318;48.644;9.456;2022-07-01T06:40:45;16.20;99.90
18384;DHT22;9318;48.644;9.456;2022-07-01T06:43:36;16.30;99.90
18384;DHT22;9318;48.644;9.456;2022-07-01T06:46:04;16.40;99.90
18384;DHT22;9318;48.644;9.456;2022-07-01T06:48:31;16.30;99.90
18384;DHT22;9318;48.644;9.456;2022-07-01T06:50:59;16.30;99.90
18384;DHT22;9318;48.644;9.456;2022-07-01T06:53:26;16.20;99.90
18384;DHT22;9318;48.644;9.456;2022-07-01T06:55:53;16.00;99.90
18384;DHT22;9318;48.644;9.456;2022-07-01T06:58:20;16.10;99.90
18384;DHT22;9318;48.644;9.456;2022-07-01T07:00:49;16.10;99.90
18384;DHT22;9318;48.644;9.456;2022-07-01T07:03:16;16.20;99.90
18384;DHT22;9318;48.644;9.456;2022-07-01T07:05:43;16.20;99.90
18384;DHT22;9318;48.644;9.456;2022-07-01T07:08:10;16.20;99.90
18384;DHT22;9318;48.644;9.456;2022-07-01T07:10:38;16.30;99.90
18384;DHT22;9318;48.644;9.456;2022-07-01T07:13:05;16.10;99.90
18384;DHT22;9318;48.644;9.456;2022-07-01T07:15:32;15.90;99.90
18384;DHT22;9318;48.644;9.456;2022-07-01T07:18:01;16.00;99.90
18384;DHT22;9318;48.644;9.456;2022-07-01T07:20:28;16.00;99.90
18384;DHT22;9318;48.644;9.456;2022-07-01T07:22:56;16.00;99.90
18384;DHT22;9318;48.644;9.456;2022-07-01T07:25:23;16.00;99.90
18384;DHT22;9318;48.644;9.456;2022-07-01T07:27:50;16.10;99.90
18384;DHT22;9318;48.644;9.456;2022-07-01T07:30:18;15.80;99.90
18384;DHT22;9318;48.644;9.456;2022-07-01T07:32:45;15.60;99.90
18384;DHT22;9318;48.644;9.456;2022-07-01T07:35:14;15.60;99.90
18384;DHT22;9318;48.644;9.456;2022-07-01T07:37:41;15.70;99.90
18384;DHT22;9318;48.644;9.456;2022-07-01T07:40:10;15.80;99.90
18384;DHT22;9318;48.644;9.456;2022-07-01T07:42:41;16.00;99.90
18384;DHT22;9318;48.644;9.456;2022-07-01T07:45:09;16.10;99.90
18384;DHT22;9318;48.644;9.456;2022-07-01T07:47:37;16.20;99.90
18384;DHT22;9318;48.644;9.456;2022-07-01T07:50:05;16.30;99.90
18384;DHT22;9318;48.644;9.456;2022-07-01T07:52:34;16.40;99.90
18384;DHT22;9318;48.644;9.456;2022-07-01T07:55:02;16.50;99.90
18384;DHT22;9318;48.644;9.456;2022-07-01T07:57:29;16.60;99.90
18384;DHT22;9318;48.644;9.456;2022-07-01T07:59:57;16.50;99.90
18384;DHT22;9318;48.644;9.456;2022-07-01T08:02:24;16.30;99.90
18384;DHT22;9318;48.644;9.456;2022-07-01T08:04:51;16.30;99.90
18384;DHT22;9318;48.644;9.456;2022-07-01T08:07:19;16.30;99.90
18384;DHT22;9318;48.644;9.456;2022-07-01T08:09:47;16.40;99.90
18384;DHT22;9318;48.644;9.456;2022-07-01T08:12:15;16.30;99.90
18384;DHT22;9318;48.644;9.456;2022-07-01T08:14:43;16.20;99.90
18384;DHT22;9318;48.644;9.456;2022-07-01T08:17:10;16.00;99.90
18384;DHT22;9318;48.644;9.456;2022-07-01T08:19:37;16.10;99.90
18384;DHT22;9318;48.644;9.456;2022-07-01T08:22:05;16.20;99.90
18384;DHT22;9318;48.644;9.456;2022-07-01T08:24:32;16.30;99.90
18384;DHT22;9318;48.644;9.456;2022-07-01T08:27:01;16.40;99.90
18384;DHT22;9318;48.644;9.456;2022-07-01T08:29:28;16.30;99.90
18384;DHT22;9318;48.644;9.456;2022-07-01T08:31:55;16.40;99.90
18384;DHT22;9318;48.644;9.456;2022-07-01T08:34:22;16.50;99.90
18384;DHT22;9318;48.644;9.456;2022-07-01T08:36:50;16.60;99.90
18384;DHT22;9318;48.644;9.456;2022-07-01T08:39:17;16.60;99.90
18384;DHT22;9318;48.644;9.456;2022-07-01T08:41:47;16.60;99.90
18384;DHT22;9318;48.644;9.456;2022-07-01T08:44:16;16.50;99.90
18384;DHT22;9318;48.644;9.456;2022-07-01T08:46:43;16.60;99.90
18384;DHT22;9318;48.644;9.456;2022-07-01T08:49:12;16.60;99.90
18384;DHT22;9318;48.644;9.456;2022-07-01T08:51:39;16.60;99.90
18384;DHT22;9318;48.644;9.456;2022-07-01T08:54:06;16.60;99.90
18384;DHT22;9318;48.644;9.456;2022-07-01T08:56:33;16.60;99.90
18384;DHT22;9318;48.644;9.456;2022-07-01T08:59:12;16.40;99.90
18384;DHT22;9318;48.644;9.456;2022-07-01T09:01:41;16.30;99.90
18384;DHT22;9318;48.644;9.456;2022-07-01T09:04:15;16.30;99.90
18384;DHT22;9318;48.644;9.456;2022-07-01T09:06:43;16.30;99.90
18384;DHT22;9318;48.644;9.456;2022-07-01T09:09:12;16.20;99.90
18384;DHT22;9318;48.644;9.456;2022-07-01T09:11:45;15.90;99.90
18384;DHT22;9318;48.644;9.456;2022-07-01T09:14:13;15.90;99.90
18384;DHT22;9318;48.644;9.456;2022-07-01T09:16:44;15.90;99.90
18384;DHT22;9318;48.644;9.456;2022-07-01T09:19:13;16.10;99.90
18384;DHT22;9318;48.644;9.456;2022-07-01T09:21:40;16.30;99.90
18384;DHT22;9318;48.644;9.456;2022-07-01T09:24:24;16.50;99.90
18384;DHT22;9318;48.644;9.456;2022-07-01T09:26:52;16.40;99.90
18384;DHT22;9318;48.644;9.456;2022-07-01T09:29:20;16.20;99.90
18384;DHT22;9318;48.644;9.456;2022-07-01T09:31:53;16.40;99.90
18384;DHT22;9318;48.644;9.456;2022-07-01T09:34:23;16.40;99.90
18384;DHT22;9318;48.644;9.456;2022-07-01T09:36:55;16.20;99.90
18384;DHT22;9318;48.644;9.456;2022-07-01T09:39:23;16.30;99.90
18384;DHT22;9318;48.644;9.456;2022-07-01T09:41:54;16.30;99.90
18384;DHT22;9318;48.644;9.456;2022-07-01T09:44:22;16.20;99.90
18384;DHT22;9318;48.644;9.456;2022-07-01T09:46:55;16.10;99.90
18384;DHT22;9318;48.644;9.456;2022-07-01T09:49:23;16.10;99.90
18384;DHT22;9318;48.644;9.456;2022-07-01T09:51:50;16.10;99.90
18384;DHT22;9318;48.644;9.456;2022-07-01T09:54:18;16.10;99.90
18384;DHT22;9318;48.644;9.456;2022-07-01T09:56:46;16.10;99.90
18384;DHT22;9318;48.644;9.456;2022-07-01T09:59:13;16.20;99.90
18384;DHT22;9318;48.644;9.456;2022-07-01T10:01:44;16.00;99.90
18384;DHT22;9318;48.644;9.456;2022-07-01T10:04:15;16.00;99.90
18384;DHT22;9318;48.644;9.456;2022-07-01T10:06:56;16.10;99.90
18384;DHT22;9318;48.644;9.456;2022-07-01T10:09:51;16.10;99.90
18384;DHT22;9318;48.644;9.456;2022-07-01T10:12:33;16.20;99.90
18384;DHT22;9318;48.644;9.456;2022-07-01T10:15:02;16.10;99.90
18384;DHT22;9318;48.644;9.456;2022-07-01T10:17:30;16.10;99.90
18384;DHT22;9318;48.644;9.456;2022-07-01T10:20:07;15.90;99.90
18384;DHT22;9318;48.644;9.456;2022-07-01T10:22:36;16.00;99.90
18384;DHT22;9318;48.644;9.456;2022-07-01T10:25:32;16.10;99.90
18384;DHT22;9318;48.644;9.456;2022-07-01T10:28:16;16.20;99.90
18384;DHT22;9318;48.644;9.456;2022-07-01T10:30:54;16.20;99.90
18384;DHT22;9318;48.644;9.456;2022-07-01T10:33:43;16.30;99.90
18384;DHT22;9318;48.644;9.456;2022-07-01T10:36:18;16.50;99.90
18384;DHT22;9318;48.644;9.456;2022-07-01T10:39:18;16.50;99.90
18384;DHT22;9318;48.644;9.456;2022-07-01T10:42:06;16.60;99.90
18384;DHT22;9318;48.644;9.456;2022-07-01T10:44:34;16.50;99.90
18384;DHT22;9318;48.644;9.456;2022-07-01T10:47:05;16.60;99.90
18384;DHT22;9318;48.644;9.456;2022-07-01T10:49:57;16.60;99.90
18384;DHT22;9318;48.644;9.456;2022-07-01T10:52:27;16.70;99.90
18384;DHT22;9318;48.644;9.456;2022-07-01T10:54:56;16.60;99.90
18384;DHT22;9318;48.644;9.456;2022-07-01T10:57:29;16.50;99.90
18384;DHT22;9318;48.644;9.456;2022-07-01T11:00:27;16.50;99.90
18384;DHT22;9318;48.644;9.456;2022-07-01T11:03:17;16.50;99.90
18384;DHT22;9318;48.644;9.456;2022-07-01T11:05:48;16.50;99.90
18384;DHT22;9318;48.644;9.456;2022-07-01T11:08:17;16.50;99.90
18384;DHT22;9318;48.644;9.456;2022-07-01T11:10:50;16.60;99.90
18384;DHT22;9318;48.644;9.456;2022-07-01T11:13:19;16.60;99.90
18384;DHT22;9318;48.644;9.456;2022-07-01T11:15:47;16.70;99.90
18384;DHT22;9318;48.644;9.456;2022-07-01T11:18:15;16.70;99.90
18384;DHT22;9318;48.644;9.456;2022-07-01T11:20:43;16.80;99.90
18384;DHT22;9318;48.644;9.456;2022-07-01T11:23:11;16.70;99.90
18384;DHT22;9318;48.644;9.456;2022-07-01T11:25:40;16.60;99.90
18384;DHT22;9318;48.644;9.456;2022-07-01T11:28:07;16.30;99.90
18384;DHT22;9318;48.644;9.456;2022-07-01T11:30:37;16.10;99.90
18384;DHT22;9318;48.644;9.456;2022-07-01T11:33:04;16.00;99.90
18384;DHT22;9318;48.644;9.456;2022-07-01T11:35:32;16.10;99.90
18384;DHT22;9318;48.644;9.456;2022-07-01T11:38:19;16.20;99.90
18384;DHT22;9318;48.644;9.456;2022-07-01T11:41:06;16.10;99.90
18384;DHT22;9318;48.644;9.456;2022-07-01T11:43:38;16.10;99.90
18384;DHT22;9318;48.644;9.456;2022-07-01T11:46:07;16.00;99.90
18384;DHT22;9318;48.644;9.456;2022-07-01T11:48:38;16.20;99.90
18384;DHT22;9318;48.644;9.456;2022-07-01T11:51:11;16.30;99.90
18384;DHT22;9318;48.644;9.456;2022-07-01T11:53:41;16.50;99.90
18384;DHT22;9318;48.644;9.456;2022-07-01T11:56:10;16.60;99.90
18384;DHT22;9318;48.644;9.456;2022-07-01T11:58:45;16.70;99.90
18384;DHT22;9318;48.644;9.456;2022-07-01T12:01:23;16.80;99.90
18384;DHT22;9318;48.644;9.456;2022-07-01T12:03:51;16.90;99.90
18384;DHT22;9318;48.644;9.456;2022-07-01T12:06:20;17.00;99.90
18384;DHT22;9318;48.644;9.456;2022-07-01T12:08:50;17.00;99.90
18384;DHT22;9318;48.644;9.456;2022-07-01T12:11:19;17.00;99.90
18384;DHT22;9318;48.644;9.456;2022-07-01T12:13:48;17.20;99.90
18384;DHT22;9318;48.644;9.456;2022-07-01T12:16:16;17.50;99.90
18384;DHT22;9318;48.644;9.456;2022-07-01T12:18:58;17.60;99.90
18384;DHT22;9318;48.644;9.456;2022-07-01T12:21:26;17.50;99.90
18384;DHT22;9318;48.644;9.456;2022-07-01T12:24:05;17.60;99.90
18384;DHT22;9318;48.644;9.456;2022-07-01T12:26:35;17.70;99.90
18384;DHT22;9318;48.644;9.456;2022-07-01T12:29:12;17.80;99.90
18384;DHT22;9318;48.644;9.456;2022-07-01T12:31:40;17.60;99.90
18384;DHT22;9318;48.644;9.456;2022-07-01T12:34:08;17.70;99.90
18384;DHT22;9318;48.644;9.456;2022-07-01T12:36:35;17.80;99.90
18384;DHT22;9318;48.644;9.456;2022-07-01T12:39:04;17.80;99.90
18384;DHT22;9318;48.644;9.456;2022-07-01T12:41:35;17.90;99.90
18384;DHT22;9318;48.644;9.456;2022-07-01T12:44:06;18.10;99.90
18384;DHT22;9318;48.644;9.456;2022-07-01T12:46:46;18.40;99.90
18384;DHT22;9318;48.644;9.456;2022-07-01T12:49:18;18.70;99.90
18384;DHT22;9318;48.644;9.456;2022-07-01T12:51:46;19.00;99.90
18384;DHT22;9318;48.644;9.456;2022-07-01T12:54:29;19.40;99.90
18384;DHT22;9318;48.644;9.456;2022-07-01T12:56:59;19.80;99.90
18384;DHT22;9318;48.644;9.456;2022-07-01T12:59:27;20.20;99.90
18384;DHT22;9318;48.644;9.456;2022-07-01T13:01:55;20.60;99.90
18384;DHT22;9318;48.644;9.456;2022-07-01T13:04:27;20.90;99.90
18384;DHT22;9318;48.644;9.456;2022-07-01T13:06:55;21.20;99.90
18384;DHT22;9318;48.644;9.456;2022-07-01T13:09:22;21.10;99.90
18384;DHT22;9318;48.644;9.456;2022-07-01T13:11:49;21.10;99.90
18384;DHT22;9318;48.644;9.456;2022-07-01T13:14:18;20.80;99.90
18384;DHT22;9318;48.644;9.456;2022-07-01T13:16:45;20.70;99.90
18384;DHT22;9318;48.644;9.456;2022-07-01T13:19:13;20.40;99.90
18384;DHT22;9318;48.644;9.456;2022-07-01T13:21:40;20.20;99.90
18384;DHT22;9318;48.644;9.456;2022-07-01T13:24:07;20.10;99.90
18384;DHT22;9318;48.644;9.456;2022-07-01T13:26:35;20.10;99.90
18384;DHT22;9318;48.644;9.456;2022-07-01T13:29:03;20.10;99.90
18384;DHT22;9318;48.644;9.456;2022-07-01T13:31:32;20.20;99.90
18384;DHT22;9318;48.644;9.456;2022-07-01T13:34:00;20.10;99.90
18384;DHT22;9318;48.644;9.456;2022-07-01T13:36:27;20.10;99.90
18384;DHT22;9318;48.644;9.456;2022-07-01T13:38:54;20.10;99.90
18384;DHT22;9318;48.644;9.456;2022-07-01T13:41:21;20.00;99.90
18384;DHT22;9318;48.644;9.456;2022-07-01T13:43:49;20.10;99.90
18384;DHT22;9318;48.644;9.456;2022-07-01T13:46:17;20.20;99.90
18384;DHT22;9318;48.644;9.456;2022-07-01T13:48:46;20.40;99.90
18384;DHT22;9318;48.644;9.456;2022-07-01T13:51:13;20.90;99.90
18384;DHT22;9318;48.644;9.456;2022-07-01T13:53:40;21.40;99.90
18384;DHT22;9318;48.644;9.456;2022-07-01T13:56:08;21.80;99.90
18384;DHT22;9318;48.644;9.456;2022-07-01T13:58:35;22.10;99.90
18384;DHT22;9318;48.644;9.456;2022-07-01T14:01:03;22.10;99.90
18384;DHT22;9318;48.644;9.456;2022-07-01T14:03:31;22.30;99.90
18384;DHT22;9318;48.644;9.456;2022-07-01T14:05:59;22.20;99.90
18384;DHT22;9318;48.644;9.456;2022-07-01T14:08:27;22.10;99.90
18384;DHT22;9318;48.644;9.456;2022-07-01T14:10:54;21.70;99.90
18384;DHT22;9318;48.644;9.456;2022-07-01T14:13:22;21.60;99.90
18384;DHT22;9318;48.644;9.456;2022-07-01T14:15:49;21.70;99.90
18384;DHT22;9318;48.644;9.456;2022-07-01T14:18:17;21.80;99.90
18384;DHT22;9318;48.644;9.456;2022-07-01T14:20:44;21.80;99.90
18384;DHT22;9318;48.644;9.456;2022-07-01T14:23:13;22.10;99.90
18384;DHT22;9318;48.644;9.456;2022-07-01T14:25:42;22.20;99.90
18384;DHT22;9318;48.644;9.456;2022-07-01T14:28:11;22.60;99.90
18384;DHT22;9318;48.644;9.456;2022-07-01T14:30:38;23.20;99.90
18384;DHT22;9318;48.644;9.456;2022-07-01T14:33:05;23.60;99.90
18384;DHT22;9318;48.644;9.456;2022-07-01T14:35:33;24.70;99.90
18384;DHT22;9318;48.644;9.456;2022-07-01T14:38:00;26.10;99.90
18384;DHT22;9318;48.644;9.456;2022-07-01T14:40:30;27.60;99.90
18384;DHT22;9318;48.644;9.456;2022-07-01T14:42:58;28.90;99.90
18384;DHT22;9318;48.644;9.456;2022-07-01T14:45:26;30.10;96.70
18384;DHT22;9318;48.644;9.456;2022-07-01T14:47:53;31.30;93.90
18384;DHT22;9318;48.644;9.456;2022-07-01T14:50:21;32.20;88.60
18384;DHT22;9318;48.644;9.456;2022-07-01T14:52:49;33.00;80.50
18384;DHT22;9318;48.644;9.456;2022-07-01T14:55:16;33.50;73.90
18384;DHT22;9318;48.644;9.456;2022-07-01T14:57:45;33.90;70.20
18384;DHT22;9318;48.644;9.456;2022-07-01T15:00:13;34.70;70.80
18384;DHT22;9318;48.644;9.456;2022-07-01T15:02:40;35.40;66.80
18384;DHT22;9318;48.644;9.456;2022-07-01T15:05:08;36.00;66.50
18384;DHT22;9318;48.644;9.456;2022-07-01T15:07:36;36.50;62.40
18384;DHT22;9318;48.644;9.456;2022-07-01T15:10:03;36.80;60.40
18384;DHT22;9318;48.644;9.456;2022-07-01T15:12:30;36.30;58.30
18384;DHT22;9318;48.644;9.456;2022-07-01T15:14:59;34.60;57.20
18384;DHT22;9318;48.644;9.456;2022-07-01T15:17:27;34.50;61.40
18384;DHT22;9318;48.644;9.456;2022-07-01T15:19:54;34.30;57.80
18384;DHT22;9318;48.644;9.456;2022-07-01T15:22:22;34.60;60.50
18384;DHT22;9318;48.644;9.456;2022-07-01T15:24:49;34.30;57.80
18384;DHT22;9318;48.644;9.456;2022-07-01T15:27:16;35.30;57.90
18384;DHT22;9318;48.644;9.456;2022-07-01T15:29:44;35.70;56.60
18384;DHT22;9318;48.644;9.456;2022-07-01T15:32:12;36.70;58.70
18384;DHT22;9318;48.644;9.456;2022-07-01T15:34:40;37.40;58.40
18384;DHT22;9318;48.644;9.456;2022-07-01T15:37:07;37.20;57.90
18384;DHT22;9318;48.644;9.456;2022-07-01T15:39:35;36.90;54.80
18384;DHT22;9318;48.644;9.456;2022-07-01T15:42:03;37.00;54.40
18384;DHT22;9318;48.644;9.456;2022-07-01T15:44:30;37.00;58.50
18384;DHT22;9318;48.644;9.456;2022-07-01T15:46:58;36.60;56.20
18384;DHT22;9318;48.644;9.456;2022-07-01T15:49:46;35.40;57.20
18384;DHT22;9318;48.644;9.456;2022-07-01T15:52:14;34.90;56.80
18384;DHT22;9318;48.644;9.456;2022-07-01T15:54:41;34.30;62.60
18384;DHT22;9318;48.644;9.456;2022-07-01T15:57:08;33.00;63.80
18384;DHT22;9318;48.644;9.456;2022-07-01T15:59:35;31.00;61.60